46U

Alpine Airport

Alpine, Wyoming, USA
METAR K46U 261320Z AUTO 00000KT 10SM CLR M00/M02 A3029 RMK A01
Observed Flight Rules
Apr-26 @ 13:20 UTC (23 minutes ago) Visual Flight Rules
Visibility Clouds
10 miles
  • Clear skies
Temperatures Readings
Current 0°C / 32°F
Dewpoint -2°C / 28°F
Humidity 87%
Altimeter 30.29" Hg
Pressure 1026 hPa
Elevation 1717
METAR K46U 261320Z AUTO 00000KT 10SM CLR M00/M02 A3029 RMK A01
Observed Flight Rules
Apr-26 @ 13:20 UTC
(23 minutes ago)
VFR
Clouds
  • Clear skies
Temperature Dewpoint
0°C / 32°F -2°C / 28°F
Humidity Altimeter Pressure
87% 30.29" Hg 1026 hPa